Time;durP1;ratioP1;P1;durP2;ratioP2;P2;SDS_P1;SDS_P2;PMS_P1;PMS_P2;Temp;Humidity;BMP_temperature;BMP_pressure;BME280_temperature;BME280_humidity;BME280_pressure;Samples;Min_cycle;Max_cycle;Signal;HPM_P1;HPM_P2
2022/12/15 00:40:11;;;;;;;23.48;9.27;;;;;;;-148.88;100.00;77388.31;5016431;28;20117;-81
2022/12/15 00:42:37;;;;;;;21.58;9.88;;;;;;;-148.88;100.00;77370.00;5015504;28;20026;-82
2022/12/15 00:45:02;;;;;;;22.05;9.98;;;;;;;-148.88;100.00;77374.09;5016059;28;20057;-82
2022/12/15 00:47:31;;;;;;;21.02;8.85;;;;;;;-148.88;100.00;77378.16;5016771;28;20034;-82
2022/12/15 01:20:17;;;;;;;20.95;9.10;;;;;;;-148.88;100.00;77378.16;5022100;28;20029;-84
2022/12/15 01:22:51;;;;;;;20.40;8.90;;;;;;;-148.88;100.00;77361.88;5019904;28;20116;-85
2022/12/15 01:25:18;;;;;;;25.92;9.57;;;;;;;-148.88;100.00;77347.66;5021217;28;20522;-85
2022/12/15 01:27:44;;;;;;;22.90;9.90;;;;;;;-148.88;100.00;77365.94;5016069;28;20048;-84
2022/12/15 01:30:11;;;;;;;25.25;9.43;;;;;;;-148.88;100.00;77370.00;5015043;28;20393;-83
2022/12/15 01:32:37;;;;;;;21.15;8.80;;;;;;;-148.88;100.00;77374.09;5017566;28;20388;-84
2022/12/15 01:35:05;;;;;;;19.05;8.68;;;;;;;-148.88;100.00;77367.97;5021535;28;20029;-84
2022/12/15 01:37:30;;;;;;;24.40;9.95;;;;;;;-148.88;99.97;77384.25;5022642;28;20089;-85
2022/12/15 01:42:48;;;;;;;23.90;8.85;;;;;;;-148.88;100.00;77396.44;5001762;28;20072;-85
2022/12/15 01:45:25;;;;;;;21.52;9.82;;;;;;;-148.88;100.00;77396.44;5022550;28;20022;-83
2022/12/15 01:48:12;;;;;;;22.92;9.95;;;;;;;-148.88;100.00;77406.59;5023840;28;20101;-84
2022/12/15 01:50:48;;;;;;;22.52;9.77;;;;;;;-148.88;100.00;77414.72;5022705;28;20080;-84
2022/12/15 01:53:14;;;;;;;17.73;8.05;;;;;;;-148.88;100.00;77418.78;5023043;28;20022;-84
2022/12/15 01:55:43;;;;;;;18.08;8.50;;;;;;;-148.88;100.00;77424.88;5022893;28;20018;-84
2022/12/15 01:58:11;;;;;;;22.83;8.85;;;;;;;-148.88;100.00;77416.75;5023402;28;20033;-84
2022/12/15 02:00:36;;;;;;;20.00;9.23;;;;;;;-148.88;100.00;77424.88;5022936;28;20044;-84
2022/12/15 02:03:04;;;;;;;25.83;9.15;;;;;;;-148.88;100.00;77428.94;5018718;28;20461;-83
2022/12/15 02:05:30;;;;;;;20.88;9.13;;;;;;;-148.88;100.00;77426.91;5021591;28;20025;-83
2022/12/15 02:07:57;;;;;;;23.77;10.32;;;;;;;-148.88;100.00;77416.75;5034791;28;20018;-83
2022/12/15 02:10:35;;;;;;;25.48;9.93;;;;;;;-148.88;100.00;77414.72;5035793;28;20392;-83
2022/12/15 02:13:16;;;;;;;19.45;9.75;;;;;;;-148.88;100.00;77428.94;5032527;28;20026;-84
2022/12/15 02:15:53;;;;;;;25.50;9.95;;;;;;;-148.88;100.00;77439.09;5032849;28;20053;-84
2022/12/15 02:18:26;;;;;;;19.02;9.35;;;;;;;-148.88;100.00;77453.31;5026517;28;20025;-84
2022/12/15 02:21:05;;;;;;;25.30;10.55;;;;;;;-148.88;100.00;77441.13;5025818;28;20060;-84
2022/12/15 02:24:24;;;;;;;21.58;9.43;;;;;;;-148.88;100.00;77447.22;5024979;28;20085;-85
2022/12/15 02:27:08;;;;;;;23.58;9.32;;;;;;;-148.88;100.00;77447.22;4948717;29;20065;-85
2022/12/15 02:29:58;;;;;;;27.83;9.80;;;;;;;-148.88;100.00;77447.22;4964527;29;20029;-84
2022/12/15 02:32:29;;;;;;;23.70;9.77;;;;;;;-148.88;100.00;77459.44;5005276;28;20045;-85
2022/12/15 02:35:02;;;;;;;24.77;10.35;;;;;;;-148.88;100.00;77449.25;5021250;28;20030;-83
2022/12/15 02:37:33;;;;;;;22.17;9.63;;;;;;;-148.88;100.00;77441.13;5019037;28;20112;-82
2022/12/15 02:39:59;;;;;;;22.38;10.05;;;;;;;-148.88;100.00;77451.28;5016884;28;20111;-84
2022/12/15 02:42:26;;;;;;;25.55;10.00;;;;;;;-148.88;100.00;77457.41;5018466;28;20037;-84
2022/12/15 02:45:03;;;;;;;21.88;10.10;;;;;;;-148.88;100.00;77447.22;5020495;28;20021;-84
2022/12/15 02:47:52;;;;;;;26.30;9.70;;;;;;;-148.88;100.00;77443.16;5021121;28;20104;-84
2022/12/15 02:50:42;;;;;;;22.83;9.60;;;;;;;-148.88;99.71;77443.16;5018764;28;20060;-85
2022/12/15 02:53:27;;;;;;;19.20;8.88;;;;;;;-148.88;99.62;77443.16;5018308;28;20541;-85
2022/12/15 02:55:58;;;;;;;23.92;9.32;;;;;;;-148.88;99.58;77447.22;5018347;28;20049;-86
2022/12/15 02:58:47;;;;;;;24.02;9.90;;;;;;;-148.88;99.35;77451.28;5019032;28;20072;-83
2022/12/15 03:01:38;;;;;;;21.95;8.75;;;;;;;-148.88;99.11;77451.28;5016697;28;20076;-84
2022/12/15 03:04:07;;;;;;;20.35;8.90;;;;;;;-148.88;98.97;77459.44;5017023;28;20032;-83
2022/12/15 03:06:32;;;;;;;24.90;10.35;;;;;;;-148.88;99.25;77455.38;5017327;28;20484;-83
2022/12/15 03:08:57;;;;;;;23.60;10.00;;;;;;;-148.88;99.08;77455.38;5017408;28;20040;-82
2022/12/15 03:11:23;;;;;;;22.08;9.10;;;;;;;-148.88;98.96;77459.44;5016182;28;20076;-81
2022/12/15 03:13:49;;;;;;;24.63;8.93;;;;;;;-148.88;99.12;77465.53;5018072;28;20113;-83
2022/12/15 03:16:14;;;;;;;20.80;9.02;;;;;;;-148.88;99.13;77475.69;5017585;28;20468;-83
2022/12/15 03:18:40;;;;;;;21.05;9.68;;;;;;;-148.88;98.99;77471.63;5017182;28;20036;-82
2022/12/15 03:21:05;;;;;;;23.90;10.00;;;;;;;-148.88;99.22;77487.88;5019363;28;20457;-83
2022/12/15 03:23:30;;;;;;;20.30;9.60;;;;;;;-148.88;99.29;77483.81;5018889;28;20025;-82
2022/12/15 03:25:56;;;;;;;21.92;9.57;;;;;;;-148.88;99.58;77477.72;5018842;28;20111;-84
2022/12/15 03:28:21;;;;;;;23.40;10.40;;;;;;;-148.88;99.47;77483.81;5017969;28;20021;-83
2022/12/15 03:30:48;;;;;;;18.33;9.65;;;;;;;-148.88;99.38;77487.88;5018956;28;20030;-84
2022/12/15 03:33:13;;;;;;;23.20;9.77;;;;;;;-148.88;99.55;77489.91;5019728;28;20041;-84
2022/12/15 03:35:38;;;;;;;19.55;10.02;;;;;;;-148.88;99.13;77489.91;5018493;28;20022;-83
2022/12/15 03:38:04;;;;;;;23.42;9.15;;;;;;;-148.88;99.56;77491.94;5016212;28;20033;-83
2022/12/15 03:40:30;;;;;;;20.98;9.48;;;;;;;-148.88;99.25;77491.94;5015661;28;20025;-83
2022/12/15 03:42:56;;;;;;;24.02;9.43;;;;;;;-148.88;99.40;77491.94;5014762;28;20018;-82
2022/12/15 03:45:24;;;;;;;24.42;9.18;;;;;;;-148.88;98.68;77500.06;5014299;28;20402;-82
2022/12/15 03:47:51;;;;;;;25.58;9.65;;;;;;;-148.88;99.16;77481.78;5014573;28;20025;-83
2022/12/15 03:50:19;;;;;;;24.02;8.65;;;;;;;-148.88;98.45;77510.22;5016150;28;20116;-83
2022/12/15 03:52:49;;;;;;;20.80;9.85;;;;;;;-148.88;99.25;77498.03;5017150;28;20503;-83
2022/12/15 03:55:14;;;;;;;18.95;8.88;;;;;;;-148.88;98.95;77502.09;5017330;28;20049;-83
2022/12/15 03:57:41;;;;;;;21.25;9.15;;;;;;;-148.88;99.27;77512.25;5016697;28;20429;-82
2022/12/15 04:00:07;;;;;;;25.25;9.65;;;;;;;-148.88;99.29;77520.38;5015400;28;20072;-83
2022/12/15 04:02:32;;;;;;;22.63;9.88;;;;;;;-148.88;99.16;77512.25;5015655;28;20029;-83
2022/12/15 04:04:57;;;;;;;24.27;9.23;;;;;;;-148.88;99.29;77512.25;5016627;28;20038;-84
2022/12/15 04:07:23;;;;;;;20.48;8.68;;;;;;;-148.88;99.46;77518.34;5015466;28;20022;-83
2022/12/15 04:09:48;;;;;;;18.80;9.18;;;;;;;-148.88;99.52;77516.31;5016186;28;20032;-83
2022/12/15 04:12:13;;;;;;;21.48;9.77;;;;;;;-148.88;99.40;77510.22;5015470;28;20025;-83
2022/12/15 04:14:41;;;;;;;17.75;8.68;;;;;;;-148.88;99.00;77496.00;5016727;28;20366;-83
2022/12/15 04:17:08;;;;;;;22.83;9.50;;;;;;;-148.88;99.19;77508.19;5015183;28;20026;-81
2022/12/15 04:22:17;;;;;;;;;;;;;;;-148.88;98.98;77516.31;5033344;28;20076;-82
2022/12/15 05:33:25;;;;;;;24.20;11.07;;;;;;;-148.88;100.00;77481.78;5021332;28;20072;-85
2022/12/15 05:35:57;;;;;;;25.75;9.98;;;;;;;-148.88;100.00;77483.81;5020952;28;20377;-85
2022/12/15 05:38:40;;;;;;;22.90;8.93;;;;;;;-148.88;100.00;77491.94;5019741;28;20121;-86
2022/12/15 05:41:32;;;;;;;20.13;9.57;;;;;;;-148.88;100.00;77496.00;5022203;28;20669;-85
2022/12/15 05:44:13;;;;;;;22.63;9.70;;;;;;;-148.88;100.00;77500.06;5020405;28;20435;-84
2022/12/15 05:46:39;;;;;;;24.30;10.77;;;;;;;-148.88;100.00;77504.13;5020973;28;20117;-86
2022/12/15 05:49:07;;;;;;;23.35;10.68;;;;;;;-148.88;100.00;77512.25;5020674;28;20034;-86
2022/12/15 05:51:42;;;;;;;29.33;11.40;;;;;;;-148.88;100.00;77524.44;5020961;28;20062;-84
2022/12/15 05:54:17;;;;;;;26.17;11.73;;;;;;;-148.88;100.00;77526.47;5020281;28;20021;-84
2022/12/15 05:56:43;;;;;;;21.67;9.75;;;;;;;-148.88;100.00;77536.66;5020572;28;20056;-82
2022/12/15 05:59:12;;;;;;;25.60;11.30;;;;;;;-148.88;100.00;77536.66;5017784;28;20073;-83
2022/12/15 06:01:38;;;;;;;26.55;10.68;;;;;;;-148.88;100.00;77544.78;5017783;28;20124;-84
2022/12/15 06:04:11;;;;;;;21.38;9.95;;;;;;;-148.88;100.00;77548.84;5019302;28;20017;-83
2022/12/15 06:06:42;;;;;;;26.87;10.87;;;;;;;-148.88;100.00;77552.91;5020394;28;20493;-84
2022/12/15 06:09:15;;;;;;;21.80;10.10;;;;;;;-148.88;100.00;77550.88;5020047;28;20511;-86
2022/12/15 06:11:40;;;;;;;24.10;9.95;;;;;;;-148.88;100.00;77552.91;5017778;28;20030;-85
2022/12/15 06:14:05;;;;;;;24.15;10.43;;;;;;;-148.88;100.00;77565.09;5018874;28;20041;-85
2022/12/15 06:16:31;;;;;;;20.17;9.90;;;;;;;-148.88;100.00;77567.13;5018143;28;20025;-86
2022/12/15 06:18:59;;;;;;;21.67;9.95;;;;;;;-148.88;100.00;77569.16;5017119;28;20025;-85
2022/12/15 06:21:28;;;;;;;24.17;11.50;;;;;;;-148.88;100.00;77569.16;5018092;28;20025;-86
2022/12/15 06:23:55;;;;;;;21.55;10.85;;;;;;;-148.88;100.00;77571.19;5018713;28;20105;-85
2022/12/15 06:26:29;;;;;;;20.80;10.40;;;;;;;-148.88;100.00;77585.41;5018118;28;20072;-85
2022/12/15 06:28:56;;;;;;;26.33;10.25;;;;;;;-148.88;100.00;77581.34;5018851;28;20021;-86
2022/12/15 06:31:24;;;;;;;19.52;9.88;;;;;;;-148.88;100.00;77581.34;5018459;28;20022;-87
2022/12/15 06:33:52;;;;;;;21.52;11.10;;;;;;;-148.88;100.00;77581.34;5028227;28;20089;-85
2022/12/15 06:36:18;;;;;;;24.75;11.25;;;;;;;-148.88;100.00;77573.22;5018400;28;20026;-86
2022/12/15 06:38:44;;;;;;;24.15;10.70;;;;;;;-148.88;100.00;77573.22;5016954;28;20025;-87
2022/12/15 06:41:13;;;;;;;25.48;10.23;;;;;;;-148.88;100.00;77569.16;5022028;28;20029;-86
2022/12/15 06:43:39;;;;;;;22.95;10.75;;;;;;;-148.88;100.00;77569.16;5016617;28;20029;-86
2022/12/15 06:46:04;;;;;;;22.42;9.73;;;;;;;-148.88;100.00;77561.03;5017968;28;20472;-86
2022/12/15 06:48:30;;;;;;;23.05;10.95;;;;;;;-148.88;100.00;77567.13;5016605;28;20022;-84
2022/12/15 06:51:02;;;;;;;25.48;13.35;;;;;;;-148.88;100.00;77563.06;5017110;28;20030;-85
2022/12/15 06:53:27;;;;;;;24.30;10.85;;;;;;;-148.88;100.00;77565.09;5019394;28;20026;-84
2022/12/15 06:55:59;;;;;;;22.10;10.00;;;;;;;-148.88;100.00;77561.03;5019861;28;20026;-84
2022/12/15 06:58:24;;;;;;;22.83;10.40;;;;;;;-148.88;100.00;77561.03;5019877;28;20040;-83
2022/12/15 07:00:49;;;;;;;24.25;11.07;;;;;;;-148.88;100.00;77559.00;5019707;28;20026;-83
2022/12/15 07:03:17;;;;;;;21.30;11.57;;;;;;;-148.88;100.00;77559.00;5021873;28;20025;-83
2022/12/15 07:05:44;;;;;;;23.35;9.88;;;;;;;-148.88;100.00;77561.03;5018827;28;20022;-84
2022/12/15 07:08:11;;;;;;;28.52;11.32;;;;;;;-148.88;100.00;77565.09;5021351;28;20034;-83
2022/12/15 07:10:40;;;;;;;27.55;12.38;;;;;;;-148.88;100.00;77565.09;5022470;28;20029;-83
2022/12/15 07:13:09;;;;;;;25.15;12.05;;;;;;;-148.88;100.00;77556.97;5021698;28;20057;-83
2022/12/15 07:15:34;;;;;;;24.00;11.43;;;;;;;-148.88;100.00;77552.91;5025695;28;20018;-84
2022/12/15 07:17:59;;;;;;;27.90;11.57;;;;;;;-148.88;100.00;77565.09;5025786;28;20037;-84
2022/12/15 07:20:25;;;;;;;27.83;12.55;;;;;;;-148.88;100.00;77561.03;5027253;28;20049;-84
2022/12/15 07:22:51;;;;;;;24.30;10.63;;;;;;;-148.88;100.00;77571.19;5026292;28;20030;-84
2022/12/15 07:25:17;;;;;;;24.52;11.10;;;;;;;-148.88;100.00;77569.16;5027045;28;20026;-83
2022/12/15 07:27:43;;;;;;;22.77;11.00;;;;;;;-148.88;100.00;77575.25;5026461;28;20022;-83
2022/12/15 07:30:09;;;;;;;23.38;10.98;;;;;;;-148.88;100.00;77577.28;5025184;28;20028;-84
2022/12/15 07:32:34;;;;;;;30.00;11.38;;;;;;;-148.88;100.00;77577.28;5026952;28;20028;-83
2022/12/15 07:35:00;;;;;;;28.10;12.45;;;;;;;-148.88;100.00;77569.16;5036675;28;20022;-83
2022/12/15 07:37:28;;;;;;;29.88;13.15;;;;;;;-148.88;100.00;77573.22;5036127;28;20014;-84
2022/12/15 07:39:53;;;;;;;39.45;15.98;;;;;;;-148.88;100.00;77579.31;5027264;28;20045;-84
2022/12/15 07:42:19;;;;;;;26.38;11.95;;;;;;;-148.88;100.00;77565.09;5020953;28;20057;-84
2022/12/15 07:44:45;;;;;;;29.88;13.48;;;;;;;-148.88;100.00;77573.22;5028599;28;20029;-84
2022/12/15 07:47:10;;;;;;;27.75;11.57;;;;;;;-148.88;100.00;77575.25;5025911;28;20030;-83
2022/12/15 07:49:35;;;;;;;25.85;11.32;;;;;;;-148.88;100.00;77581.34;5024839;28;20097;-84
2022/12/15 07:52:01;;;;;;;23.38;11.80;;;;;;;-148.88;100.00;77583.38;5025907;28;20026;-84
2022/12/15 07:54:28;;;;;;;27.88;12.55;;;;;;;-148.88;100.00;77581.34;5025354;28;20022;-84
2022/12/15 07:56:53;;;;;;;29.52;12.32;;;;;;;-148.88;100.00;77573.22;5025833;28;20085;-83
2022/12/15 07:59:18;;;;;;;28.38;12.38;;;;;;;-148.88;100.00;77581.34;5025082;28;20021;-84
2022/12/15 08:01:44;;;;;;;24.48;12.07;;;;;;;-148.88;100.00;77581.34;5026335;28;20026;-82
2022/12/15 08:04:09;;;;;;;27.40;12.65;;;;;;;-148.88;100.00;77581.34;5025095;28;20033;-83
2022/12/15 08:06:35;;;;;;;27.55;12.13;;;;;;;-148.88;100.00;77579.31;5025633;28;20472;-83
2022/12/15 08:09:00;;;;;;;28.27;12.77;;;;;;;-148.88;100.00;77571.19;5025779;28;20032;-84
2022/12/15 08:11:26;;;;;;;25.30;11.85;;;;;;;-148.88;100.00;77561.03;5024842;28;20052;-84
2022/12/15 08:13:51;;;;;;;25.60;12.93;;;;;;;-148.88;100.00;77556.97;5019532;28;20026;-83
2022/12/15 08:16:17;;;;;;;28.38;13.90;;;;;;;-148.88;100.00;77554.94;5020858;28;20021;-83
2022/12/15 08:18:43;;;;;;;31.35;16.10;;;;;;;-148.88;100.00;77546.81;5023781;28;20502;-83
2022/12/15 08:21:09;;;;;;;28.25;12.05;;;;;;;-148.88;100.00;77532.59;5024637;28;20503;-83
2022/12/15 08:23:35;;;;;;;28.63;13.55;;;;;;;-148.88;100.00;77526.47;5025711;28;20026;-83
2022/12/15 08:26:07;;;;;;;26.85;12.75;;;;;;;-148.88;100.00;77522.41;5025965;28;20033;-84
2022/12/15 08:28:40;;;;;;;27.90;13.43;;;;;;;-148.88;100.00;77512.25;5028813;28;20029;-84
2022/12/15 08:31:12;;;;;;;26.00;13.05;;;;;;;-148.88;100.00;77514.28;5026708;28;20029;-83
2022/12/15 08:33:39;;;;;;;33.60;14.48;;;;;;;-148.88;100.00;77506.16;5027417;28;20025;-84
2022/12/15 08:36:07;;;;;;;35.25;15.07;;;;;;;-148.88;100.00;77491.94;5027611;28;20044;-84
2022/12/15 08:38:34;;;;;;;29.40;13.88;;;;;;;-148.88;100.00;77479.75;5027389;28;20030;-84
2022/12/15 08:41:15;;;;;;;27.60;13.32;;;;;;;-148.88;100.00;77479.75;5027859;28;20359;-84
2022/12/15 08:43:41;;;;;;;31.42;13.13;;;;;;;-148.88;100.00;77467.56;5027015;28;20034;-84
2022/12/15 08:46:07;;;;;;;28.90;13.95;;;;;;;-148.88;100.00;77455.38;5025035;28;20041;-84
2022/12/15 08:48:34;;;;;;;30.08;13.93;;;;;;;-148.88;100.00;77447.22;5017159;28;20113;-84
2022/12/15 08:51:00;;;;;;;35.08;14.48;;;;;;;-148.88;100.00;77443.16;5021225;28;20026;-84
2022/12/15 08:53:26;;;;;;;31.33;14.10;;;;;;;-148.88;100.00;77435.03;5023732;28;20064;-84
2022/12/15 08:55:51;;;;;;;33.10;13.85;;;;;;;-148.88;99.95;77447.22;5026146;28;20026;-85
2022/12/15 08:58:17;;;;;;;28.40;13.52;;;;;;;-148.88;100.00;77443.16;5026205;28;20333;-85
2022/12/15 09:00:42;;;;;;;34.72;12.90;;;;;;;-148.88;99.91;77447.22;5025558;28;20079;-84
2022/12/15 09:03:08;;;;;;;26.02;11.48;;;;;;;-148.88;100.00;77451.28;5025830;28;20400;-85
2022/12/15 09:05:37;;;;;;;26.10;13.48;;;;;;;-148.88;100.00;77447.22;5024705;28;20033;-84
2022/12/15 09:08:03;;;;;;;31.40;13.45;;;;;;;-148.88;100.00;77443.16;5025954;28;20021;-84
2022/12/15 09:10:28;;;;;;;26.88;14.32;;;;;;;-148.88;100.00;77441.13;5025969;28;20037;-84
2022/12/15 09:12:54;;;;;;;33.22;13.43;;;;;;;-148.88;100.00;77443.16;5025184;28;20093;-84
2022/12/15 09:15:19;;;;;;;26.25;12.43;;;;;;;-148.88;100.00;77433.00;5026131;28;20076;-85
2022/12/15 09:17:45;;;;;;;29.88;15.05;;;;;;;-148.88;100.00;77418.78;5025425;28;20026;-83
2022/12/15 09:20:11;;;;;;;33.05;14.48;;;;;;;-148.88;100.00;77414.72;5024824;28;20041;-84
2022/12/15 09:22:36;;;;;;;27.00;13.35;;;;;;;-148.88;100.00;77418.78;5031611;28;20030;-84
2022/12/15 09:25:03;;;;;;;30.25;14.25;;;;;;;-148.88;100.00;77410.66;5036339;28;20022;-84
2022/12/15 09:27:31;;;;;;;33.20;15.60;;;;;;;-148.88;100.00;77402.53;5031198;28;20037;-85
2022/12/15 09:29:59;;;;;;;35.90;15.40;;;;;;;-148.88;100.00;77390.34;5030076;28;20048;-85
2022/12/15 09:32:25;;;;;;;32.88;14.93;;;;;;;-148.88;100.00;77378.16;5030087;28;20057;-85
2022/12/15 09:34:50;;;;;;;32.25;13.60;;;;;;;-148.88;100.00;77382.22;5028597;28;20085;-85
2022/12/15 09:37:17;;;;;;;31.98;14.23;;;;;;;-148.88;100.00;77374.09;5027651;28;20029;-85
2022/12/15 09:39:42;;;;;;;30.67;14.88;;;;;;;-148.88;100.00;77365.94;5027750;28;20061;-84
2022/12/15 09:42:24;;;;;;;27.45;13.90;;;;;;;-148.88;100.00;77353.75;5028749;28;20022;-85
2022/12/15 09:45:00;;;;;;;32.83;13.70;;;;;;;-148.88;100.00;77345.63;5027004;28;20041;-85
2022/12/15 09:47:39;;;;;;;29.88;13.98;;;;;;;-148.88;100.00;77341.56;5029217;28;20037;-85
2022/12/15 09:50:09;;;;;;;29.33;14.05;;;;;;;-148.88;100.00;77329.38;5026836;28;20026;-85
2022/12/15 09:52:46;;;;;;;28.15;12.98;;;;;;;-148.88;99.52;77325.31;5025941;28;20175;-85
2022/12/15 09:55:22;;;;;;;32.30;14.38;;;;;;;-148.88;99.80;77323.28;5019926;28;20087;-84
2022/12/15 09:57:55;;;;;;;33.03;15.40;;;;;;;-148.88;99.21;77315.16;5022558;28;20022;-84
2022/12/15 10:00:28;;;;;;;28.33;13.27;;;;;;;-148.88;99.42;77298.91;5025236;28;20354;-85
2022/12/15 10:03:34;;;;;;;32.67;14.85;;;;;;;-148.88;99.11;77288.72;5026747;28;20037;-84
2022/12/15 10:06:18;;;;;;;30.58;14.50;;;;;;;-148.88;98.48;77276.53;5028152;28;20037;-85
2022/12/15 10:08:59;;;;;;;30.30;14.38;;;;;;;-148.88;97.89;77268.41;5025984;28;20424;-85
2022/12/15 10:11:51;;;;;;;28.50;12.70;;;;;;;-148.88;98.08;77252.16;5028215;28;20018;-86
2022/12/15 10:14:34;;;;;;;30.38;13.98;;;;;;;-148.88;96.83;77233.88;5037067;28;20033;-84
2022/12/15 10:17:43;;;;;;;37.63;15.65;;;;;;;-148.88;96.92;77223.72;5039759;28;20052;-84
2022/12/15 10:20:47;;;;;;;32.42;15.05;;;;;;;-148.88;96.06;77201.34;4936516;29;20028;-85
2022/12/15 10:23:18;;;;;;;27.40;13.15;;;;;;;-148.88;95.72;77185.09;4844386;29;20029;-85
2022/12/15 10:25:56;;;;;;;30.90;15.18;;;;;;;-148.88;95.45;77170.88;4842491;29;20038;-85
2022/12/15 10:28:47;;;;;;;29.40;14.75;;;;;;;-148.88;94.19;77148.53;4890040;29;20044;-85
2022/12/15 10:31:38;;;;;;;33.40;15.15;;;;;;;-148.88;93.32;77142.44;4941915;29;20067;-85
2022/12/15 10:34:30;;;;;;;30.05;14.40;;;;;;;-148.88;92.75;77116.03;4930186;29;20038;-85
2022/12/15 10:37:17;;;;;;;30.35;13.52;;;;;;;-148.88;92.48;77085.53;4936820;28;20087;-85
2022/12/15 10:40:04;;;;;;;32.25;14.65;;;;;;;-148.88;91.95;77083.50;5027074;28;20048;-87
2022/12/15 10:43:34;;;;;;;35.75;17.75;;;;;;;-148.88;91.90;77075.38;5029240;28;20034;-86
2022/12/15 10:45:41;;;;;;;29.60;15.60;;;;;;;-148.88;91.39;77053.03;5012989;28;20030;-86
2022/12/15 10:49:00;;;;;;;28.40;14.33;;;;;;;-148.88;90.84;77030.69;5027047;28;20447;-85
2022/12/15 10:52:08;;;;;;;29.88;15.07;;;;;;;-148.88;91.45;77006.31;5020253;28;20034;-86
2022/12/15 10:55:42;;;;;;;29.85;14.63;;;;;;;-148.88;90.30;76996.13;4982645;28;20053;-86
2022/12/15 10:58:06;;;;;;;29.00;13.60;;;;;;;-148.88;88.68;76963.63;5011361;28;20081;-86
2022/12/15 11:00:41;;;;;;;24.48;13.23;;;;;;;-148.88;87.50;76951.44;5022754;28;20412;-86
2022/12/15 11:07:33;;;;;;;29.48;15.13;;;;;;;-148.88;86.00;76988.00;4881414;29;20063;-84
2022/12/15 11:13:19;;;;;;;28.80;14.43;;;;;;;-148.88;85.75;76935.19;4808496;29;20160;-85
2022/12/15 11:16:20;;;;;;;28.00;13.95;;;;;;;-148.88;84.83;76927.06;4913151;29;20032;-86
2022/12/15 11:19:10;;;;;;;25.90;12.75;;;;;;;-148.88;82.35;76906.75;5002242;28;20033;-87
2022/12/15 11:21:58;;;;;;;27.45;13.55;;;;;;;-148.88;83.38;76878.28;5016783;28;20021;-86
2022/12/15 11:25:12;;;;;;;;;;;;;;;;;;;;;
2022/12/15 11:28:03;;;;;;;25.58;12.60;;;;;;;-148.88;84.55;76902.69;5017332;28;20029;-86
2022/12/15 11:31:21;;;;;;;26.85;13.25;;;;;;;-148.88;84.93;76898.63;5019295;28;20037;-85
2022/12/15 11:34:20;;;;;;;27.25;13.30;;;;;;;-148.88;83.49;76878.28;4997679;28;20028;-86
2022/12/15 11:38:24;;;;;;;31.77;13.57;;;;;;;-148.88;81.82;76910.81;5024218;28;20045;-86
2022/12/15 11:41:29;;;;;;;28.75;13.52;;;;;;;-148.88;81.47;76870.16;5005583;28;20096;-86
2022/12/15 11:44:26;;;;;;;29.38;13.45;;;;;;;-148.88;82.07;76845.78;4950280;28;20507;-86
2022/12/15 11:47:28;;;;;;;29.58;14.23;;;;;;;-148.88;82.86;76827.50;5016729;28;20030;-86
2022/12/15 11:50:50;;;;;;;34.10;13.95;;;;;;;-148.88;83.46;76878.28;5015588;28;20057;-86
2022/12/15 11:53:59;;;;;;;25.95;12.57;;;;;;;-148.88;82.84;76853.91;4921338;29;20055;-86
2022/12/15 11:56:53;;;;;;;28.38;12.50;;;;;;;-148.88;83.16;76841.72;5015672;28;20041;-86
2022/12/15 11:59:30;;;;;;;;;;;;;;;-148.88;84.30;76878.28;5015619;28;20032;-86
2022/12/15 12:02:49;;;;;;;23.77;11.40;;;;;;;-148.88;84.51;76857.97;5015637;28;20008;-86
2022/12/15 12:05:42;;;;;;;23.48;12.18;;;;;;;-148.88;86.12;76914.88;4936781;29;20163;-85
2022/12/15 12:08:34;;;;;;;27.00;12.82;;;;;;;-148.88;88.03;76925.03;4920753;29;20091;-87
2022/12/15 12:11:06;;;;;;;27.08;12.13;;;;;;;-148.88;86.54;76951.44;5007371;28;20116;-86
2022/12/15 12:14:17;;;;;;;24.52;13.10;;;;;;;-148.88;87.21;76931.13;5013989;28;20033;-86
2022/12/15 12:17:09;;;;;;;28.23;12.52;;;;;;;-148.88;87.87;76923.00;5017961;28;20032;-87
2022/12/15 12:19:52;;;;;;;22.10;11.88;;;;;;;-148.88;87.04;76914.88;5015283;28;20071;-86
2022/12/15 12:22:32;;;;;;;21.33;11.80;;;;;;;-148.88;87.13;76906.75;5016889;28;20026;-86
2022/12/15 12:25:12;;;;;;;25.00;10.63;;;;;;;-148.88;84.84;76914.88;5017344;28;20030;-86
2022/12/15 12:28:11;;;;;;;23.42;12.15;;;;;;;-148.88;86.08;76920.97;5016893;28;20017;-87
2022/12/15 12:30:47;;;;;;;23.17;11.40;;;;;;;-148.88;85.74;76914.88;4986831;28;20400;-86
2022/12/15 12:33:42;;;;;;;25.70;11.70;;;;;;;-148.88;85.32;76914.88;5015298;28;20477;-86
2022/12/15 12:36:13;;;;;;;22.48;11.32;;;;;;;-148.88;86.35;76923.00;5017332;28;20026;-86
2022/12/15 12:39:09;;;;;;;;;;;;;;;;;;;;;
2022/12/15 12:42:25;;;;;;;23.83;11.95;;;;;;;-148.88;86.45;76914.88;5018377;28;20109;-88
2022/12/15 12:45:29;;;;;;;20.98;11.45;;;;;;;-148.88;85.20;76908.78;5014389;28;20022;-85
2022/12/15 12:48:25;;;;;;;22.48;11.18;;;;;;;-148.88;84.18;76914.88;5013030;28;20037;-85
2022/12/15 12:55:13;;;;;;;28.45;12.38;;;;;;;-148.88;84.99;76918.94;5018509;28;20026;-82
2022/12/15 12:58:10;;;;;;;24.67;12.60;;;;;;;-148.88;84.93;76906.75;5024102;28;20034;-85
2022/12/15 13:01:40;;;;;;;;;;;;;;;;;;;;;
2022/12/15 13:04:53;;;;;;;22.88;10.35;;;;;;;-148.88;84.53;76896.59;4939454;29;20181;-85
2022/12/15 13:08:36;;;;;;;;;;;;;;;;;;;;;
2022/12/15 13:11:40;;;;;;;25.42;11.57;;;;;;;-148.88;84.03;76874.22;5011141;22;20046;-74
2022/12/15 13:14:14;;;;;;;21.35;10.57;;;;;;;-148.88;84.53;76878.28;5013150;28;20033;-73
2022/12/15 13:16:39;;;;;;;21.02;10.63;;;;;;;-148.88;83.75;76874.22;5015628;28;20084;-73
2022/12/15 13:19:07;;;;;;;23.65;11.85;;;;;;;-148.88;84.63;76872.19;5012853;28;20025;-73
2022/12/15 13:21:41;;;;;;;24.75;11.80;;;;;;;-148.88;84.71;76894.56;5012386;28;20030;-73
2022/12/15 13:24:29;;;;;;;22.00;10.82;;;;;;;-148.88;84.90;76878.28;5012399;28;20030;-73
2022/12/15 13:27:15;;;;;;;23.55;11.68;;;;;;;-148.88;84.80;76878.28;5012433;28;20508;-73
2022/12/15 13:30:00;;;;;;;25.95;11.98;;;;;;;-148.88;85.00;76866.09;5012562;28;20042;-74
2022/12/15 13:32:30;;;;;;;19.92;10.90;;;;;;;-148.88;84.88;76866.09;5015844;28;20030;-74
2022/12/15 13:34:57;;;;;;;20.38;10.40;;;;;;;-148.88;84.64;76860.00;5016032;28;20505;-74
2022/12/15 13:37:58;;;;;;;22.88;11.15;;;;;;;-148.88;84.85;76862.03;5016021;28;20100;-73
2022/12/15 13:40:35;;;;;;;22.55;10.80;;;;;;;-148.88;84.50;76870.16;5016436;28;20053;-74
2022/12/15 13:43:03;;;;;;;22.95;11.00;;;;;;;-148.88;84.36;76874.22;5016115;28;20029;-73
2022/12/15 13:46:09;;;;;;;23.20;11.48;;;;;;;-148.88;85.20;76878.28;5015565;28;20018;-73
2022/12/15 13:48:52;;;;;;;26.17;12.38;;;;;;;-148.88;85.54;76896.59;4966958;28;20073;-73
2022/12/15 13:51:34;;;;;;;24.08;11.48;;;;;;;-148.88;86.67;76894.56;5017153;28;20064;-73
2022/12/15 13:54:17;;;;;;;20.67;10.50;;;;;;;-148.88;86.36;76906.75;5018045;28;20099;-73
2022/12/15 13:56:54;;;;;;;22.73;11.33;;;;;;;-148.88;86.22;76908.78;5016107;28;20026;-73
2022/12/15 13:59:32;;;;;;;20.58;11.70;;;;;;;-148.88;86.38;76908.78;5016033;28;20286;-73
2022/12/15 14:01:58;;;;;;;26.25;10.95;;;;;;;-148.88;86.52;76920.97;5014516;28;20060;-73
2022/12/15 14:04:23;;;;;;;20.73;10.93;;;;;;;-148.88;86.72;76927.06;5016049;28;20022;-74
2022/12/15 14:06:53;;;;;;;21.83;10.32;;;;;;;-148.88;86.91;76918.94;5016694;28;20029;-74
2022/12/15 14:09:26;;;;;;;19.98;10.90;;;;;;;-148.88;87.58;76927.06;5015586;28;20045;-74
2022/12/15 14:11:52;;;;;;;21.50;11.00;;;;;;;-148.88;87.92;76931.13;5015965;28;20412;-73
2022/12/15 14:14:22;;;;;;;25.15;11.52;;;;;;;-148.88;88.24;76929.09;5015522;28;20546;-73
2022/12/15 14:16:58;;;;;;;24.98;10.77;;;;;;;-148.88;88.01;76935.19;5015583;28;20022;-73
2022/12/15 14:19:23;;;;;;;21.42;10.85;;;;;;;-148.88;88.77;76937.22;5015352;28;20536;-73